This is the latest recevied weather packets stored in our database for station/object W5LND-10. If no packets are shown the sender has not sent any weather packets the latest 10 day(s).
| Time | Temp. | Humidity | Pressure | Rain* | Wind** | Luminosity | Snow |
|---|---|---|---|---|---|---|---|
| 1777575084 | 15° C | 72% | 1012.3 hPa | 0 mm | - | 123 W/m² | - |
| 1777574784 | 15° C | 72% | 1012.2 hPa | 0 mm | - | 121 W/m² | - |
| 1777574484 | 15° C | 72% | 1012.2 hPa | 0 mm | - | 139 W/m² | - |
| 1777574184 | 15° C | 71% | 1011.9 hPa | 0 mm | - | 234 W/m² | - |
| 1777573884 | 15° C | 71% | 1012.2 hPa | 0 mm | - | 193 W/m² | - |
| 1777573584 | 15° C | 70% | 1012.3 hPa | 0 mm | - | 160 W/m² | - |
| 1777573284 | 15° C | 70% | 1012 hPa | 0 mm | - | 225 W/m² | - |
| 1777572984 | 15° C | 70% | 1011.4 hPa | 0 mm | - | 408 W/m² | - |
| 1777572684 | 15° C | 70% | 1011.6 hPa | 0 mm | - | 334 W/m² | - |
| 1777572384 | 15° C | 71% | 1011.7 hPa | 0 mm | - | 353 W/m² | - |
| 1777572084 | 15° C | 72% | 1011.7 hPa | 0 mm | - | 327 W/m² | - |
| 1777571784 | 15° C | 72% | 1011.7 hPa | 0 mm | - | 279 W/m² | - |
| 1777571484 | 15° C | 72% | 1012.1 hPa | 0 mm | - | 183 W/m² | - |
| 1777571184 | 14.44° C | 72% | 1012.3 hPa | 0 mm | - | 172 W/m² | - |
| 1777570884 | 14.44° C | 72% | 1012.5 hPa | 0 mm | - | 107 W/m² | - |
| 1777570584 | 15° C | 72% | 1012 hPa | 0 mm | - | 135 W/m² | - |
| 1777570284 | 15° C | 72% | 1012.5 hPa | 0 mm | - | 128 W/m² | - |
| 1777569984 | 15° C | 72% | 1012.5 hPa | 0 mm | - | 121 W/m² | - |
| 1777569684 | 15° C | 72% | 1012.8 hPa | 0 mm | - | 86 W/m² | - |
| 1777569384 | 15° C | 72% | 1012.8 hPa | 0 mm | - | 137 W/m² | - |
| 1777569084 | 15° C | 72% | 1012.7 hPa | 0 mm | - | 153 W/m² | - |
| 1777568784 | 15° C | 72% | 1012.7 hPa | 0 mm | - | 165 W/m² | - |
| 1777568484 | 15° C | 72% | 1012.3 hPa | 0 mm | - | 246 W/m² | - |
| 1777568184 | 15° C | 72% | 1012.5 hPa | 0 mm | - | 183 W/m² | - |
| 1777567884 | 15° C | 72% | 1012.2 hPa | 0 mm | - | 218 W/m² | - |
* Rain latest hour (hover to see other rain measurements)
** Current wind speed in m/s (hover to see current wind gust speed)